N337B KHSP-KW35

Flight info

Callsign N337B
Flight time 0h 53m
Altitude 9500
Route ESL
Aircraft C337/L-V/N

Departure

Time 2026-05-08 17:02
Airport Ingalls Field (KHSP)

Arrival

Time 2026-05-08 17:55
Airport Potomac Airpark (KW35)
Time Latitude Longitude Altitude Speed Heading
2026-05-08 16:59 37.95574 -79.82649 3773 ft 0 kts 30°
2026-05-08 17:00 37.95575 -79.82648 3772 ft 1 kts 28°
2026-05-08 17:00 37.95576 -79.82593 3765 ft 12 kts 148°
2026-05-08 17:01 37.95537 -79.82576 3765 ft 0 kts 235°
2026-05-08 17:01 37.95507 -79.82638 3770 ft 31 kts 237°
2026-05-08 17:01 37.95311 -79.83044 3793 ft 71 kts 240°
2026-05-08 17:01 37.95035 -79.83641 3948 ft 81 kts 244°
2026-05-08 17:02 37.94759 -79.84291 4269 ft 84 kts 240°
2026-05-08 17:02 37.94440 -79.84965 4634 ft 93 kts 248°
2026-05-08 17:02 37.93993 -79.85626 4927 ft 114 kts 198°
2026-05-08 17:02 37.93194 -79.85310 5082 ft 127 kts 150°
2026-05-08 17:03 37.92641 -79.84422 5104 ft 139 kts 94°
2026-05-08 17:03 37.92991 -79.83342 5099 ft 139 kts 56°
2026-05-08 17:03 37.93484 -79.82226 5214 ft 153 kts 58°
2026-05-08 17:03 37.93948 -79.81029 5482 ft 148 kts 74°
2026-05-08 17:04 37.93855 -79.79763 5803 ft 144 kts 101°
2026-05-08 17:04 37.93685 -79.78545 6162 ft 135 kts 98°
2026-05-08 17:04 37.93361 -79.77494 6544 ft 128 kts 143°
2026-05-08 17:04 37.92627 -79.77397 6898 ft 100 kts 226°
2026-05-08 17:05 37.92555 -79.78131 7176 ft 90 kts 290°
2026-05-08 17:05 37.92833 -79.78854 7449 ft 92 kts 296°
2026-05-08 17:05 37.93187 -79.79528 7686 ft 94 kts 297°
2026-05-08 17:05 37.93563 -79.80205 7932 ft 94 kts 298°
2026-05-08 17:06 37.93942 -79.80875 8187 ft 92 kts 295°
2026-05-08 17:06 37.94309 -79.81539 8404 ft 92 kts 296°
2026-05-08 17:06 37.94686 -79.82199 8520 ft 93 kts 296°
2026-05-08 17:06 37.95201 -79.82741 8748 ft 105 kts 327°
2026-05-08 17:07 37.95960 -79.82882 9001 ft 123 kts
2026-05-08 17:07 37.96767 -79.82372 9243 ft 133 kts 19°
2026-05-08 17:07 37.97588 -79.81825 9377 ft 135 kts 15°
2026-05-08 17:07 37.98495 -79.81253 9427 ft 154 kts 16°
2026-05-08 17:08 37.99465 -79.80612 9504 ft 161 kts 19°
2026-05-08 17:08 38.00480 -79.79943 9505 ft 172 kts 18°
2026-05-08 17:08 38.01562 -79.79235 9502 ft 178 kts 18°
2026-05-08 17:08 38.02679 -79.78509 9493 ft 182 kts 18°
2026-05-08 17:09 38.03821 -79.77766 9505 ft 186 kts 19°
2026-05-08 17:09 38.04983 -79.77006 9504 ft 189 kts 19°
2026-05-08 17:09 38.06165 -79.76234 9494 ft 192 kts 20°
2026-05-08 17:09 38.07348 -79.75461 9499 ft 191 kts 20°
2026-05-08 17:10 38.08527 -79.74691 9494 ft 190 kts 19°
2026-05-08 17:10 38.09703 -79.73927 9493 ft 191 kts 19°
2026-05-08 17:10 38.10878 -79.73162 9495 ft 193 kts 20°
2026-05-08 17:10 38.12081 -79.72375 9490 ft 196 kts 20°
2026-05-08 17:11 38.13287 -79.71583 9493 ft 194 kts 19°
2026-05-08 17:11 38.14484 -79.70803 9489 ft 192 kts 19°
2026-05-08 17:11 38.15674 -79.70024 9478 ft 192 kts 20°
2026-05-08 17:11 38.16864 -79.69245 9489 ft 193 kts 20°
2026-05-08 17:12 38.18063 -79.68461 9488 ft 194 kts 19°
2026-05-08 17:12 38.19259 -79.67679 9488 ft 193 kts 20°
2026-05-08 17:12 38.20461 -79.66894 9479 ft 195 kts 20°
2026-05-08 17:12 38.21650 -79.66114 9484 ft 195 kts 20°
2026-05-08 17:13 38.22856 -79.65323 9482 ft 195 kts 20°
2026-05-08 17:13 38.24064 -79.64532 9480 ft 196 kts 20°
2026-05-08 17:13 38.25274 -79.63738 9479 ft 196 kts 20°
2026-05-08 17:13 38.26480 -79.62945 9476 ft 195 kts 20°
2026-05-08 17:14 38.27687 -79.62155 9476 ft 195 kts 20°
2026-05-08 17:14 38.28897 -79.61365 9471 ft 195 kts 20°
2026-05-08 17:14 38.30101 -79.60569 9471 ft 195 kts 20°
2026-05-08 17:14 38.31311 -79.59775 9479 ft 196 kts 20°
2026-05-08 17:15 38.32504 -79.58991 9464 ft 196 kts 20°
2026-05-08 17:15 38.33712 -79.58196 9457 ft 195 kts 20°
2026-05-08 17:15 38.34894 -79.57418 9462 ft 188 kts 20°
2026-05-08 17:15 38.36051 -79.56656 9453 ft 186 kts 20°
2026-05-08 17:16 38.37192 -79.55906 9456 ft 183 kts 20°
2026-05-08 17:16 38.38321 -79.55163 9453 ft 182 kts 19°
2026-05-08 17:16 38.39448 -79.54424 9467 ft 184 kts 19°
2026-05-08 17:16 38.40579 -79.53681 9474 ft 187 kts 20°
2026-05-08 17:17 38.41740 -79.52912 9474 ft 189 kts 20°
2026-05-08 17:17 38.42913 -79.52137 9462 ft 189 kts 20°
2026-05-08 17:17 38.44090 -79.51364 9471 ft 191 kts 20°
2026-05-08 17:17 38.45276 -79.50578 9467 ft 192 kts 20°
2026-05-08 17:18 38.46465 -79.49794 9466 ft 194 kts 20°
2026-05-08 17:18 38.47665 -79.48998 9454 ft 195 kts 20°
2026-05-08 17:18 38.48865 -79.48207 9466 ft 194 kts 20°
2026-05-08 17:18 38.50067 -79.47416 9471 ft 194 kts 20°
2026-05-08 17:19 38.51271 -79.46621 9452 ft 194 kts 20°
2026-05-08 17:19 38.52451 -79.45838 9456 ft 194 kts 20°
2026-05-08 17:19 38.53643 -79.45048 9450 ft 192 kts 20°
2026-05-08 17:19 38.54835 -79.44261 9455 ft 193 kts 20°
2026-05-08 17:20 38.56026 -79.43471 9441 ft 193 kts 20°
2026-05-08 17:20 38.57216 -79.42684 9445 ft 192 kts 20°
2026-05-08 17:20 38.58397 -79.41901 9444 ft 190 kts 20°
2026-05-08 17:20 38.59567 -79.41126 9449 ft 189 kts 20°
2026-05-08 17:21 38.60743 -79.40345 9448 ft 192 kts 19°
2026-05-08 17:21 38.61908 -79.39577 9449 ft 191 kts 20°
2026-05-08 17:21 38.63089 -79.38793 9447 ft 191 kts 20°
2026-05-08 17:21 38.64267 -79.38007 9447 ft 191 kts 20°
2026-05-08 17:22 38.65439 -79.37226 9452 ft 190 kts 20°
2026-05-08 17:22 38.66620 -79.36447 9452 ft 192 kts 20°
2026-05-08 17:22 38.67803 -79.35661 9451 ft 192 kts 19°
2026-05-08 17:22 38.68985 -79.34874 9448 ft 191 kts 20°
2026-05-08 17:23 38.70164 -79.34088 9446 ft 191 kts 20°
2026-05-08 17:23 38.71326 -79.33316 9454 ft 190 kts 20°
2026-05-08 17:23 38.72501 -79.32533 9451 ft 191 kts 19°
2026-05-08 17:23 38.73679 -79.31750 9446 ft 191 kts 20°
2026-05-08 17:24 38.74845 -79.30968 9443 ft 188 kts 20°
2026-05-08 17:24 38.75998 -79.30202 9440 ft 186 kts 18°
2026-05-08 17:24 38.77153 -79.29440 9437 ft 188 kts 20°
2026-05-08 17:24 38.78305 -79.28667 9434 ft 186 kts 20°
2026-05-08 17:25 38.79452 -79.27903 9445 ft 186 kts 19°
2026-05-08 17:25 38.80610 -79.27134 9452 ft 189 kts 20°
2026-05-08 17:25 38.81775 -79.26355 9446 ft 188 kts 20°
2026-05-08 17:25 38.82923 -79.25586 9447 ft 189 kts 20°
2026-05-08 17:26 38.84086 -79.24807 9446 ft 188 kts 19°
2026-05-08 17:26 38.85242 -79.24038 9444 ft 187 kts 20°
2026-05-08 17:26 38.86389 -79.23267 9434 ft 185 kts 20°
2026-05-08 17:26 38.87518 -79.22512 9437 ft 183 kts 19°
2026-05-08 17:27 38.88644 -79.21760 9440 ft 182 kts 19°
2026-05-08 17:27 38.89767 -79.21010 9428 ft 179 kts 20°
2026-05-08 17:27 38.90854 -79.20283 9432 ft 175 kts 19°
2026-05-08 17:27 38.91931 -79.19562 9443 ft 177 kts 19°
2026-05-08 17:28 38.93037 -79.18823 9442 ft 181 kts 19°
2026-05-08 17:28 38.94136 -79.18085 9438 ft 179 kts 19°
2026-05-08 17:28 38.95216 -79.17359 9443 ft 172 kts 19°
2026-05-08 17:28 38.96292 -79.16640 9443 ft 176 kts 19°
2026-05-08 17:29 38.97385 -79.15905 9447 ft 179 kts 19°
2026-05-08 17:29 38.98502 -79.15155 9440 ft 182 kts 19°
2026-05-08 17:29 38.99629 -79.14399 9445 ft 184 kts 19°
2026-05-08 17:29 39.00761 -79.13638 9443 ft 183 kts 19°
2026-05-08 17:30 39.01889 -79.12882 9445 ft 183 kts 19°
2026-05-08 17:30 39.03013 -79.12127 9437 ft 186 kts 20°
2026-05-08 17:30 39.04162 -79.11354 9443 ft 187 kts 20°
2026-05-08 17:30 39.05310 -79.10577 9441 ft 186 kts 20°
2026-05-08 17:31 39.06462 -79.09806 9439 ft 187 kts 20°
2026-05-08 17:31 39.07616 -79.09031 9437 ft 187 kts 20°
2026-05-08 17:31 39.08770 -79.08252 9443 ft 187 kts 20°
2026-05-08 17:31 39.09928 -79.07472 9439 ft 188 kts 20°
2026-05-08 17:32 39.11083 -79.06693 9436 ft 187 kts 20°
2026-05-08 17:32 39.12238 -79.05915 9439 ft 188 kts 20°
2026-05-08 17:32 39.13378 -79.05146 9433 ft 187 kts 20°
2026-05-08 17:32 39.14529 -79.04369 9432 ft 186 kts 20°
2026-05-08 17:33 39.15675 -79.03596 9433 ft 186 kts 19°
2026-05-08 17:33 39.16818 -79.02824 9428 ft 185 kts 19°
2026-05-08 17:33 39.17957 -79.02056 9431 ft 185 kts 19°
2026-05-08 17:33 39.19103 -79.01281 9427 ft 186 kts 19°
2026-05-08 17:34 39.20249 -79.00508 9435 ft 186 kts 19°
2026-05-08 17:34 39.21402 -78.99728 9426 ft 187 kts 20°
2026-05-08 17:34 39.22534 -78.98888 9419 ft 191 kts 31°
2026-05-08 17:34 39.23410 -78.97578 9418 ft 199 kts 50°
2026-05-08 17:35 39.24199 -78.96101 9425 ft 200 kts 50°
2026-05-08 17:35 39.25006 -78.94662 9422 ft 196 kts 48°
2026-05-08 17:35 39.25817 -78.93257 9420 ft 195 kts 48°
2026-05-08 17:35 39.26627 -78.91850 9416 ft 195 kts 48°
2026-05-08 17:36 39.27433 -78.90442 9416 ft 195 kts 48°
2026-05-08 17:36 39.28237 -78.89038 9410 ft 194 kts 48°
2026-05-08 17:36 39.29038 -78.87641 9410 ft 193 kts 48°
2026-05-08 17:36 39.29836 -78.86247 9419 ft 193 kts 48°
2026-05-08 17:37 39.30625 -78.84869 9417 ft 194 kts 48°
2026-05-08 17:37 39.31424 -78.83470 9417 ft 193 kts 48°
2026-05-08 17:37 39.32222 -78.82075 9422 ft 193 kts 48°
2026-05-08 17:37 39.33023 -78.80673 9419 ft 194 kts 47°
2026-05-08 17:38 39.33825 -78.79270 9423 ft 194 kts 47°
2026-05-08 17:38 39.34618 -78.77881 9417 ft 190 kts 48°
2026-05-08 17:38 39.35405 -78.76505 9422 ft 191 kts 47°
2026-05-08 17:38 39.36194 -78.75121 9426 ft 192 kts 47°
2026-05-08 17:39 39.36985 -78.73732 9425 ft 192 kts 48°
2026-05-08 17:39 39.37769 -78.72358 9366 ft 195 kts 47°
2026-05-08 17:39 39.38589 -78.70923 9214 ft 201 kts 48°
2026-05-08 17:39 39.39423 -78.69456 9067 ft 204 kts 49°
2026-05-08 17:40 39.40266 -78.67975 8926 ft 205 kts 49°
2026-05-08 17:40 39.41116 -78.66479 8764 ft 208 kts 49°
2026-05-08 17:40 39.41973 -78.64972 8622 ft 208 kts 49°
2026-05-08 17:40 39.42825 -78.63471 8465 ft 206 kts 49°
2026-05-08 17:41 39.43669 -78.61985 8313 ft 204 kts 49°
2026-05-08 17:41 39.44509 -78.60508 8159 ft 204 kts 49°
2026-05-08 17:41 39.45344 -78.59018 8010 ft 205 kts 52°
2026-05-08 17:41 39.46059 -78.57445 7862 ft 206 kts 57°
2026-05-08 17:42 39.46757 -78.55826 7704 ft 205 kts 57°
2026-05-08 17:42 39.47425 -78.54200 7548 ft 204 kts 60°
2026-05-08 17:42 39.48032 -78.52544 7401 ft 205 kts 64°
2026-05-08 17:42 39.48560 -78.50869 7409 ft 198 kts 65°
2026-05-08 17:43 39.49072 -78.49229 7409 ft 195 kts 65°
2026-05-08 17:43 39.49576 -78.47603 7406 ft 194 kts 65°
2026-05-08 17:43 39.50081 -78.45978 7403 ft 195 kts 65°
2026-05-08 17:43 39.50587 -78.44352 7395 ft 192 kts 65°
2026-05-08 17:44 39.51075 -78.42763 7409 ft 190 kts 65°
2026-05-08 17:44 39.51564 -78.41187 7408 ft 192 kts 65°
2026-05-08 17:44 39.52064 -78.39580 7401 ft 192 kts 64°
2026-05-08 17:44 39.52556 -78.37972 7394 ft 192 kts 65°
2026-05-08 17:45 39.53054 -78.36376 7393 ft 190 kts 65°
2026-05-08 17:45 39.53548 -78.34784 7388 ft 191 kts 65°
2026-05-08 17:45 39.54033 -78.33179 7385 ft 189 kts 66°
2026-05-08 17:45 39.54519 -78.31592 7408 ft 191 kts 65°
2026-05-08 17:46 39.55023 -78.29974 7329 ft 198 kts 64°
2026-05-08 17:46 39.55530 -78.28303 7175 ft 199 kts 65°
2026-05-08 17:46 39.56035 -78.26650 7043 ft 201 kts 65°
2026-05-08 17:46 39.56559 -78.24974 6866 ft 202 kts 65°
2026-05-08 17:47 39.57088 -78.23283 6672 ft 202 kts 65°
2026-05-08 17:47 39.57613 -78.21590 6478 ft 203 kts 65°
2026-05-08 17:47 39.58136 -78.19892 6281 ft 203 kts 65°
2026-05-08 17:47 39.58546 -78.18822 6130 ft 198 kts 50°
2026-05-08 17:48 39.60000 -78.17571 5846 ft 184 kts
2026-05-08 17:48 39.61255 -78.17412 5634 ft 181 kts 357°
2026-05-08 17:48 39.62507 -78.17347 5433 ft 180 kts 354°
2026-05-08 17:48 39.63749 -78.17339 5234 ft 181 kts 353°
2026-05-08 17:49 39.64963 -78.17369 5019 ft 171 kts 352°
2026-05-08 17:49 39.66149 -78.17326 4757 ft 172 kts
2026-05-08 17:49 39.67321 -78.17044 4497 ft 170 kts
2026-05-08 17:49 39.68491 -78.16877 4233 ft 168 kts 359°
2026-05-08 17:50 39.69649 -78.16729 3973 ft 169 kts 359°
2026-05-08 17:50 39.70811 -78.16575 3716 ft 167 kts
2026-05-08 17:50 39.71953 -78.16359 3466 ft 166 kts
2026-05-08 17:50 39.73095 -78.16114 3222 ft 165 kts
2026-05-08 17:51 39.74164 -78.16336 2951 ft 156 kts 328°
2026-05-08 17:51 39.74878 -78.17285 2724 ft 146 kts 291°
2026-05-08 17:51 39.74871 -78.18580 2478 ft 146 kts 252°
2026-05-08 17:51 39.74165 -78.19556 2354 ft 155 kts 217°
2026-05-08 17:52 39.73110 -78.19903 2110 ft 160 kts 187°
2026-05-08 17:52 39.72075 -78.19524 1964 ft 156 kts 153°
2026-05-08 17:52 39.71075 -78.17128 1875 ft 158 kts 96°
2026-05-08 17:53 39.70990 -78.15725 1730 ft 154 kts 94°
2026-05-08 17:53 39.70893 -78.14343 1646 ft 153 kts 97°
2026-05-08 17:53 39.70730 -78.12984 1480 ft 151 kts 101°
2026-05-08 17:53 39.70238 -78.12017 1420 ft 119 kts 169°
2026-05-08 17:54 39.69526 -78.12183 1221 ft 107 kts 213°
2026-05-08 17:54 39.69042 -78.12783 1093 ft 96 kts 263°
2026-05-08 17:54 39.68974 -78.13642 937 ft 87 kts 267°
2026-05-08 17:54 39.68986 -78.14357 714 ft 74 kts 277°
2026-05-08 17:55 39.69048 -78.15022 623 ft 75 kts 276°
2026-05-08 17:55 39.69135 -78.15638 457 ft 66 kts 276°
2026-05-08 17:55 39.69199 -78.16130 431 ft 45 kts 280°
2026-05-08 17:55 39.69244 -78.16430 431 ft 22 kts 287°
2026-05-08 17:56 39.69278 -78.16459 432 ft 0 kts